Time;durP1;ratioP1;P1;durP2;ratioP2;P2;SDS_P1;SDS_P2;PMS_P1;PMS_P2;Temp;Humidity;BMP_temperature;BMP_pressure;BME280_temperature;BME280_humidity;BME280_pressure;Samples;Min_cycle;Max_cycle;Signal;HPM_P1;HPM_P2
2021/09/24 00:01:45;;;;;;;12.20;2.60;;;;;;;13.07;87.48;98737.41;1809439;78;25562;-67
2021/09/24 00:04:12;;;;;;;11.68;2.35;;;;;;;12.81;86.98;98754.44;1840618;77;25434;-69
2021/09/24 00:09:35;;;;;;;6.20;1.90;;;;;;;12.45;86.63;98749.73;1868098;76;35065;-69
2021/09/24 00:12:01;;;;;;;7.92;2.17;;;;;;;12.20;86.80;98747.89;1824022;77;25617;-69
2021/09/24 00:14:28;;;;;;;9.43;1.82;;;;;;;12.02;87.28;98742.09;1803770;78;28169;-68
2021/09/24 00:16:54;;;;;;;7.42;2.12;;;;;;;11.93;87.85;98739.02;1824162;78;25367;-68
2021/09/24 00:19:21;;;;;;;10.10;2.60;;;;;;;11.84;87.96;98738.42;1823883;78;25531;-68
2021/09/24 00:21:47;;;;;;;14.28;3.12;;;;;;;11.78;88.25;98743.89;1803270;78;25595;-68
2021/09/24 00:24:15;;;;;;;13.20;2.70;;;;;;;11.71;88.35;98747.27;1822890;78;25777;-68
2021/09/24 00:26:41;;;;;;;9.38;2.92;;;;;;;11.66;88.36;98744.02;1803532;78;27455;-68
2021/09/24 00:29:08;;;;;;;9.28;2.17;;;;;;;11.59;88.46;98742.75;1824009;78;25698;-69
2021/09/24 00:31:34;;;;;;;9.63;2.47;;;;;;;11.55;88.49;98751.34;1824234;77;25709;-68
2021/09/24 00:34:02;;;;;;;9.40;2.50;;;;;;;11.50;88.54;98757.03;1823820;78;25591;-68
2021/09/24 00:36:28;;;;;;;12.37;2.47;;;;;;;11.45;88.77;98747.83;1824186;78;25628;-68
2021/09/24 00:38:55;;;;;;;8.65;2.33;;;;;;;11.40;88.71;98748.88;1824128;78;29677;-68
2021/09/24 00:41:21;;;;;;;12.30;2.17;;;;;;;11.35;88.64;98741.59;1824133;78;25504;-68
2021/09/24 00:43:48;;;;;;;15.38;2.80;;;;;;;11.30;88.63;98738.58;1823033;78;25696;-68
2021/09/24 00:46:14;;;;;;;11.90;2.10;;;;;;;11.25;88.29;98743.48;1823316;78;25616;-68
2021/09/24 00:48:40;;;;;;;15.68;2.17;;;;;;;11.16;88.14;98737.69;1823566;78;25614;-68
2021/09/24 00:51:08;;;;;;;9.68;2.12;;;;;;;11.08;88.04;98741.92;1803313;78;27578;-68
2021/09/24 00:53:35;;;;;;;12.95;2.50;;;;;;;11.00;88.19;98747.75;1803190;78;25683;-69
2021/09/24 00:56:01;;;;;;;13.65;2.30;;;;;;;10.94;88.03;98756.67;1824131;78;25619;-68
2021/09/24 00:58:28;;;;;;;10.95;2.65;;;;;;;10.88;87.88;98766.74;1824237;78;27427;-69
2021/09/24 01:00:54;;;;;;;12.47;2.22;;;;;;;10.81;87.96;98766.80;1824435;78;25613;-69
2021/09/24 01:03:21;;;;;;;12.80;2.55;;;;;;;10.75;87.90;98773.58;1824393;78;27487;-69
2021/09/24 01:05:49;;;;;;;10.75;2.58;;;;;;;10.69;87.90;98771.48;1803950;78;25630;-69
2021/09/24 01:08:15;;;;;;;9.93;2.52;;;;;;;10.63;88.05;98777.71;1803947;78;25404;-69
2021/09/24 01:10:42;;;;;;;12.28;2.62;;;;;;;10.59;88.00;98781.68;1824336;78;27391;-69
2021/09/24 01:13:09;;;;;;;15.13;2.40;;;;;;;10.54;87.98;98773.81;1824237;78;25379;-70
2021/09/24 01:15:35;;;;;;;14.73;2.27;;;;;;;10.51;87.89;98785.31;1803818;78;27382;-69
2021/09/24 01:18:02;;;;;;;15.15;2.87;;;;;;;10.45;87.78;98776.67;1803715;78;25553;-69
2021/09/24 01:20:28;;;;;;;17.05;2.92;;;;;;;10.42;87.75;98776.01;1823913;78;25490;-69
2021/09/24 01:22:54;;;;;;;15.32;2.85;;;;;;;10.37;87.65;98782.20;1823790;78;25818;-69
2021/09/24 01:25:23;;;;;;;11.63;3.33;;;;;;;10.34;87.64;98782.34;1824038;78;25371;-70
2021/09/24 01:27:51;;;;;;;13.38;2.95;;;;;;;10.30;87.94;98778.73;1824373;78;27563;-70
2021/09/24 01:30:19;;;;;;;10.10;3.02;;;;;;;10.30;87.79;98778.73;1824339;78;25442;-71
2021/09/24 01:32:47;;;;;;;16.73;2.65;;;;;;;10.28;87.58;98783.13;1824528;78;25549;-70
2021/09/24 01:35:15;;;;;;;17.48;3.33;;;;;;;10.25;87.51;98779.76;1824035;78;25711;-70
2021/09/24 01:37:42;;;;;;;12.15;3.52;;;;;;;10.23;87.27;98773.11;1824133;78;25589;-72
2021/09/24 01:40:16;;;;;;;14.47;3.17;;;;;;;10.21;87.28;98786.19;1824111;78;27519;-71
2021/09/24 01:42:44;;;;;;;19.45;3.72;;;;;;;10.21;87.20;98785.61;1824136;78;25806;-71
2021/09/24 01:45:12;;;;;;;13.32;3.10;;;;;;;10.20;86.93;98792.70;1824250;78;25532;-71
2021/09/24 01:47:40;;;;;;;12.33;2.90;;;;;;;10.20;86.90;98790.00;1823880;78;25420;-72
2021/09/24 01:50:08;;;;;;;18.60;3.75;;;;;;;10.21;87.05;98791.02;1803235;78;25447;-69
2021/09/24 01:52:37;;;;;;;20.10;4.15;;;;;;;10.22;86.97;98793.95;1803901;78;27499;-72
2021/09/24 01:55:06;;;;;;;17.80;3.30;;;;;;;10.22;86.71;98783.14;1803718;78;25813;-70
2021/09/24 01:57:32;;;;;;;16.27;4.58;;;;;;;10.25;86.60;98783.03;1823969;78;25608;-70
2021/09/24 02:00:01;;;;;;;16.52;3.62;;;;;;;10.25;86.47;98781.11;1803427;78;25563;-71
2021/09/24 02:02:29;;;;;;;19.82;3.42;;;;;;;10.27;86.41;98774.80;1824562;78;25366;-71
2021/09/24 02:04:56;;;;;;;12.82;3.05;;;;;;;10.29;86.22;98767.70;1824384;78;27496;-71
2021/09/24 02:07:23;;;;;;;15.68;3.30;;;;;;;10.33;85.97;98779.98;1824519;78;25245;-70
2021/09/24 02:09:49;;;;;;;14.65;3.15;;;;;;;10.36;86.19;98788.76;1829335;78;25384;-70
2021/09/24 02:12:16;;;;;;;14.93;2.83;;;;;;;10.39;86.08;98780.75;1830340;78;25514;-70
2021/09/24 02:14:42;;;;;;;20.48;3.33;;;;;;;10.42;85.90;98779.25;1830602;77;25406;-71
2021/09/24 02:17:10;;;;;;;16.02;2.87;;;;;;;10.44;85.59;98777.80;1830495;78;27440;-71
2021/09/24 02:19:37;;;;;;;11.93;2.08;;;;;;;10.48;85.30;98779.81;1830524;77;25527;-71
2021/09/24 02:22:04;;;;;;;13.62;2.40;;;;;;;10.49;85.17;98798.94;1830497;77;25251;-71
2021/09/24 02:24:30;;;;;;;13.50;2.27;;;;;;;10.52;85.06;98786.90;1814484;78;25499;-71
2021/09/24 02:26:56;;;;;;;15.00;3.27;;;;;;;10.56;84.94;98774.83;1830534;77;25577;-72
2021/09/24 02:29:23;;;;;;;16.70;2.70;;;;;;;10.59;84.83;98786.28;1830490;78;27425;-71
2021/09/24 02:31:52;;;;;;;14.28;3.22;;;;;;;10.61;84.61;98786.74;1830309;77;25588;-71
2021/09/24 02:34:20;;;;;;;13.60;2.80;;;;;;;10.65;84.47;98782.98;1814493;78;25209;-71
2021/09/24 02:36:48;;;;;;;13.37;2.53;;;;;;;10.70;84.33;98786.58;1815212;78;25601;-71
2021/09/24 02:39:15;;;;;;;13.68;2.42;;;;;;;10.73;84.53;98795.36;1815333;78;25572;-71
2021/09/24 02:41:41;;;;;;;9.28;2.10;;;;;;;10.75;84.30;98803.33;1831605;77;27385;-71
2021/09/24 02:44:08;;;;;;;15.55;2.55;;;;;;;10.78;84.27;98805.35;1831656;78;25208;-72
2021/09/24 02:46:35;;;;;;;10.60;1.90;;;;;;;10.79;83.84;98812.31;1815135;78;25165;-71
2021/09/24 02:49:02;;;;;;;9.50;3.30;;;;;;;10.81;84.04;98811.42;1830816;78;25331;-71
2021/09/24 02:51:29;;;;;;;14.87;2.10;;;;;;;10.82;83.93;98817.03;1830728;77;25560;-71
2021/09/24 02:53:55;;;;;;;10.28;1.90;;;;;;;10.84;84.09;98822.10;1830765;78;27486;-71
2021/09/24 02:56:23;;;;;;;15.93;3.08;;;;;;;10.85;84.13;98834.51;1830795;78;25344;-72
2021/09/24 02:58:50;;;;;;;11.85;2.50;;;;;;;10.86;84.10;98823.89;1830587;77;25390;-72
2021/09/24 03:01:17;;;;;;;9.33;2.40;;;;;;;10.88;84.01;98823.55;1814744;78;25463;-71
2021/09/24 03:03:43;;;;;;;10.88;2.15;;;;;;;10.89;83.93;98826.48;1830335;78;25263;-72
2021/09/24 03:06:12;;;;;;;12.82;3.17;;;;;;;10.89;83.89;98836.73;1830761;78;27552;-72
2021/09/24 03:08:38;;;;;;;12.75;3.22;;;;;;;10.90;83.79;98814.55;1813345;78;25641;-72
2021/09/24 03:11:06;;;;;;;17.77;2.80;;;;;;;10.92;83.72;98838.75;1804094;78;25486;-71
2021/09/24 03:13:33;;;;;;;9.65;2.70;;;;;;;10.94;83.69;98834.34;1824483;78;25680;-72
2021/09/24 03:16:00;;;;;;;15.68;2.60;;;;;;;10.95;83.38;98831.88;1824845;78;25383;-72
2021/09/24 03:18:30;;;;;;;15.45;3.10;;;;;;;10.96;83.41;98836.13;1824848;78;27482;-72
2021/09/24 03:20:57;;;;;;;11.20;2.10;;;;;;;10.97;82.89;98835.02;1804172;78;29543;-72
2021/09/24 03:23:23;;;;;;;12.20;2.70;;;;;;;10.99;83.09;98847.62;1824403;78;25486;-73
2021/09/24 03:25:50;;;;;;;13.62;2.80;;;;;;;11.00;83.02;98855.97;1824619;78;25576;-72
2021/09/24 03:28:17;;;;;;;17.12;2.47;;;;;;;11.02;82.95;98850.98;1824555;78;25503;-72
2021/09/24 03:30:44;;;;;;;13.90;2.65;;;;;;;11.03;82.70;98842.53;1824362;78;27456;-72
2021/09/24 03:33:11;;;;;;;11.22;2.12;;;;;;;11.06;82.78;98856.48;1824296;78;25423;-72
2021/09/24 03:35:38;;;;;;;14.75;2.90;;;;;;;11.06;82.71;98849.73;1824317;78;25150;-72
2021/09/24 03:38:04;;;;;;;11.00;2.40;;;;;;;11.07;82.72;98864.27;1824280;78;25754;-72
2021/09/24 03:40:31;;;;;;;14.03;2.50;;;;;;;11.10;82.72;98866.28;1824350;78;25562;-72
2021/09/24 03:42:58;;;;;;;18.25;3.08;;;;;;;11.12;82.74;98873.48;1824438;78;27554;-72
2021/09/24 03:45:27;;;;;;;9.15;2.87;;;;;;;11.13;82.59;98876.97;1824468;78;25683;-72
2021/09/24 03:47:53;;;;;;;19.82;3.35;;;;;;;11.12;82.26;98876.19;1824395;78;25240;-72
2021/09/24 03:50:28;;;;;;;14.47;3.05;;;;;;;11.13;82.23;98884.51;1824182;77;25421;-71
2021/09/24 03:52:53;;;;;;;11.38;3.22;;;;;;;11.12;82.17;98874.83;1803034;78;25556;-72
2021/09/24 03:55:21;;;;;;;14.07;2.60;;;;;;;11.13;81.92;98876.39;1803843;78;28293;-72
2021/09/24 03:57:48;;;;;;;18.15;3.27;;;;;;;11.15;81.85;98889.58;1824033;78;25745;-71
2021/09/24 04:00:17;;;;;;;15.35;3.42;;;;;;;11.15;81.95;98897.15;1824154;78;25532;-71
2021/09/24 04:02:44;;;;;;;21.27;3.60;;;;;;;11.17;81.82;98902.99;1824234;78;25606;-71
2021/09/24 04:05:11;;;;;;;13.20;3.12;;;;;;;11.15;81.70;98909.33;1824261;78;25116;-71
2021/09/24 04:07:38;;;;;;;16.30;3.83;;;;;;;11.17;81.84;98925.22;1824073;78;27438;-71
2021/09/24 04:10:06;;;;;;;17.65;3.30;;;;;;;11.18;81.93;98910.54;1828042;77;25356;-71
2021/09/24 04:12:33;;;;;;;12.68;2.98;;;;;;;11.17;81.70;98908.41;1830204;78;25576;-71
2021/09/24 04:15:00;;;;;;;12.93;3.00;;;;;;;11.17;81.63;98928.70;1830079;78;25543;-70
2021/09/24 04:17:27;;;;;;;16.10;2.83;;;;;;;11.18;81.77;98930.84;1787067;78;25550;-70
2021/09/24 04:19:53;;;;;;;18.02;2.98;;;;;;;11.17;81.64;98931.98;1830133;78;28009;-70
2021/09/24 04:22:21;;;;;;;17.57;3.08;;;;;;;11.19;81.78;98932.42;1830104;78;25432;-70
2021/09/24 04:24:48;;;;;;;10.68;2.50;;;;;;;11.19;81.81;98918.31;1814105;78;25528;-70
2021/09/24 04:27:15;;;;;;;17.50;3.02;;;;;;;11.20;81.77;98919.90;1813961;78;25536;-70
2021/09/24 04:29:41;;;;;;;14.43;3.40;;;;;;;11.20;81.63;98925.31;1830275;77;25409;-71
2021/09/24 04:32:08;;;;;;;20.97;4.60;;;;;;;11.21;81.77;98927.45;1813935;78;27321;-71
2021/09/24 04:34:35;;;;;;;14.33;2.98;;;;;;;11.20;81.60;98936.14;1830172;78;25620;-71
2021/09/24 04:37:02;;;;;;;15.13;3.33;;;;;;;11.23;81.64;98941.98;1830213;77;25111;-71
2021/09/24 04:39:29;;;;;;;10.75;2.95;;;;;;;11.21;81.61;98941.75;1813970;78;26157;-70
2021/09/24 04:41:56;;;;;;;16.20;3.77;;;;;;;11.23;81.64;98947.41;1830153;77;25547;-70
2021/09/24 04:44:26;;;;;;;13.58;2.83;;;;;;;11.23;81.60;98950.88;1813820;78;27359;-70
2021/09/24 04:46:52;;;;;;;;;;;;;;;11.23;81.37;98947.41;1816712;78;25553;-70
2021/09/24 04:49:19;;;;;;;9.83;2.67;;;;;;;11.23;81.31;98962.28;1830125;77;25579;-71
2021/09/24 04:51:45;;;;;;;15.68;3.08;;;;;;;11.21;81.15;98957.99;1813908;78;25660;-71
2021/09/24 04:54:12;;;;;;;16.93;3.35;;;;;;;11.23;81.23;98962.28;1829822;77;25575;-71
2021/09/24 04:56:39;;;;;;;19.05;2.60;;;;;;;11.25;81.10;98970.84;1829968;78;27450;-71
2021/09/24 04:59:06;;;;;;;13.78;3.22;;;;;;;11.25;81.08;98970.84;1828230;77;25522;-71
2021/09/24 05:01:32;;;;;;;14.70;2.72;;;;;;;11.27;81.14;98971.28;1803657;77;25701;-71
2021/09/24 05:03:59;;;;;;;15.60;3.80;;;;;;;11.26;81.05;98975.13;1822423;78;25684;-71
2021/09/24 05:06:26;;;;;;;15.40;3.70;;;;;;;11.28;81.13;98976.34;1813230;78;25303;-71
2021/09/24 05:08:52;;;;;;;9.80;3.42;;;;;;;11.27;81.19;98968.02;1829203;77;27518;-70
2021/09/24 05:11:19;;;;;;;15.40;3.27;;;;;;;11.29;81.36;98982.54;1822772;78;25710;-71
2021/09/24 05:13:45;;;;;;;14.25;3.33;;;;;;;11.31;81.29;98994.61;1823189;78;25659;-72
2021/09/24 05:16:12;;;;;;;17.27;3.85;;;;;;;11.30;81.09;98986.26;1803150;78;26283;-72
2021/09/24 05:18:38;;;;;;;12.68;3.90;;;;;;;11.33;81.27;98987.50;1801377;77;25625;-71
2021/09/24 05:21:06;;;;;;;14.33;3.98;;;;;;;11.34;81.07;98993.12;1809551;78;28012;-69
2021/09/24 05:23:34;;;;;;;13.48;3.60;;;;;;;11.34;81.04;98986.35;1809940;79;25400;-70
2021/09/24 05:26:03;;;;;;;12.47;3.60;;;;;;;11.36;81.05;99003.06;1802746;78;25728;-71
2021/09/24 05:28:30;;;;;;;17.45;4.03;;;;;;;11.36;81.08;98988.95;1790851;80;25651;-70
2021/09/24 05:30:56;;;;;;;19.27;3.87;;;;;;;11.39;80.97;99014.53;1817209;77;25870;-70
2021/09/24 05:33:23;;;;;;;15.63;3.22;;;;;;;11.43;81.30;99018.14;1857659;77;28254;-70
2021/09/24 05:35:49;;;;;;;14.05;3.62;;;;;;;11.47;81.17;99019.01;1857869;77;25509;-70
2021/09/24 05:38:16;;;;;;;15.08;3.25;;;;;;;11.48;80.97;99015.18;1851224;77;26303;-70
2021/09/24 05:40:43;;;;;;;17.17;3.37;;;;;;;11.49;80.90;99026.24;1855023;77;25442;-70
2021/09/24 05:43:09;;;;;;;15.38;3.55;;;;;;;11.50;80.65;99024.31;1855095;77;25382;-71
2021/09/24 05:45:36;;;;;;;19.17;3.90;;;;;;;11.50;80.72;99029.16;1822926;77;27454;-71
2021/09/24 05:48:03;;;;;;;12.68;2.95;;;;;;;11.52;80.73;99049.13;1855006;77;25377;-72
2021/09/24 05:50:31;;;;;;;12.23;3.22;;;;;;;11.54;80.75;99032.77;1822847;77;25394;-71
2021/09/24 05:52:59;;;;;;;22.15;4.58;;;;;;;11.55;80.65;99019.42;1855074;77;25587;-71
2021/09/24 05:55:26;;;;;;;14.78;3.62;;;;;;;11.58;80.62;99032.28;1854153;77;25539;-70
2021/09/24 05:57:53;;;;;;;21.57;4.45;;;;;;;11.64;80.73;99040.16;1824235;77;27441;-70
2021/09/24 06:00:22;;;;;;;12.95;3.30;;;;;;;11.69;80.79;99035.84;1854950;77;25505;-71
2021/09/24 06:02:50;;;;;;;14.47;3.35;;;;;;;11.75;80.89;99031.17;1855317;77;25578;-71
2021/09/24 06:05:18;;;;;;;19.27;2.80;;;;;;;11.83;80.69;99044.33;1854868;77;25566;-70
2021/09/24 06:07:45;;;;;;;10.85;3.30;;;;;;;11.92;80.47;99046.92;1849406;77;25398;-71
2021/09/24 06:10:14;;;;;;;14.93;3.02;;;;;;;12.01;80.04;99041.34;1791153;79;27454;-70
2021/09/24 06:12:41;;;;;;;16.27;3.00;;;;;;;12.06;80.01;99052.70;1791358;79;25429;-68
2021/09/24 06:15:10;;;;;;;16.25;2.87;;;;;;;12.12;79.66;99048.60;1771633;80;25612;-68
2021/09/24 06:17:36;;;;;;;17.67;3.47;;;;;;;12.17;79.53;99054.89;1772177;80;25572;-69
2021/09/24 06:20:05;;;;;;;17.55;5.15;;;;;;;12.20;79.43;99050.91;1791365;80;25521;-69
2021/09/24 06:22:32;;;;;;;12.88;3.05;;;;;;;12.23;79.22;99058.92;1791346;80;28091;-70
2021/09/24 06:24:59;;;;;;;17.85;3.30;;;;;;;12.22;78.91;99049.20;1791225;80;25680;-70
2021/09/24 06:27:26;;;;;;;21.05;3.42;;;;;;;12.20;78.99;99055.55;1771438;80;25572;-69
2021/09/24 06:29:54;;;;;;;14.07;3.47;;;;;;;12.21;79.29;99056.55;1771390;80;25378;-68
2021/09/24 06:32:21;;;;;;;15.70;3.75;;;;;;;12.28;79.30;99049.95;1791341;79;25203;-70
2021/09/24 06:34:49;;;;;;;13.43;3.62;;;;;;;12.32;79.29;99054.09;1791325;80;27998;-70
2021/09/24 06:37:16;;;;;;;17.32;3.52;;;;;;;12.40;79.09;99053.13;1791242;80;25541;-68
2021/09/24 06:39:44;;;;;;;18.82;4.22;;;;;;;12.54;79.53;99057.33;1791350;80;25437;-69
2021/09/24 06:42:11;;;;;;;17.92;3.55;;;;;;;12.61;79.13;99071.83;1771306;80;25650;-68
2021/09/24 06:44:37;;;;;;;19.30;3.58;;;;;;;12.68;79.12;99070.66;1791334;79;25525;-68
2021/09/24 06:47:05;;;;;;;16.85;3.35;;;;;;;12.82;79.09;99070.73;1791259;80;27517;-68
2021/09/24 06:49:31;;;;;;;12.93;3.30;;;;;;;13.02;79.54;99070.22;1771550;80;25603;-68
2021/09/24 06:51:58;;;;;;;15.32;3.58;;;;;;;13.17;78.68;99075.38;1791279;80;25176;-68
2021/09/24 06:54:26;;;;;;;11.57;3.20;;;;;;;13.18;77.92;99080.47;1791259;80;25550;-68
2021/09/24 06:56:53;;;;;;;20.77;3.40;;;;;;;13.14;77.52;99089.08;1791315;80;25378;-68
2021/09/24 06:59:19;;;;;;;14.63;3.27;;;;;;;13.09;77.12;99092.08;1791282;80;27541;-68
2021/09/24 07:01:46;;;;;;;14.33;3.87;;;;;;;13.02;76.59;99091.34;1791164;79;25466;-68
2021/09/24 07:04:14;;;;;;;19.02;3.75;;;;;;;12.94;76.66;99086.93;1791272;80;25548;-68
2021/09/24 07:06:43;;;;;;;12.88;3.52;;;;;;;12.88;76.95;99097.25;1791253;79;25446;-68
2021/09/24 07:09:09;;;;;;;12.18;3.50;;;;;;;12.83;76.86;99092.67;1791286;80;25601;-68
2021/09/24 07:11:36;;;;;;;15.72;3.62;;;;;;;12.79;77.20;99099.38;1796529;78;27520;-68
2021/09/24 07:14:10;;;;;;;11.83;3.60;;;;;;;12.77;77.07;99107.09;1797047;79;27307;-68
2021/09/24 07:16:38;;;;;;;15.00;3.20;;;;;;;12.75;77.06;99113.99;1797176;79;25533;-69
2021/09/24 07:19:06;;;;;;;14.23;3.95;;;;;;;12.74;77.32;99116.51;1797115;79;25529;-70
2021/09/24 07:21:34;;;;;;;11.60;4.45;;;;;;;12.76;77.31;99115.58;1797899;79;25378;-70
2021/09/24 07:24:01;;;;;;;17.32;4.40;;;;;;;12.75;77.20;99124.84;1799429;79;27511;-70
2021/09/24 07:26:29;;;;;;;15.18;3.90;;;;;;;12.74;77.12;99119.22;1798831;79;25407;-70
2021/09/24 07:28:56;;;;;;;15.93;3.67;;;;;;;12.76;77.23;99127.22;1806099;77;25709;-68
2021/09/24 07:31:25;;;;;;;18.37;3.55;;;;;;;12.79;77.13;99127.09;1797089;79;25502;-68
2021/09/24 07:33:52;;;;;;;13.45;3.95;;;;;;;12.79;77.08;99134.66;1797217;78;25469;-69
2021/09/24 07:36:20;;;;;;;14.05;3.20;;;;;;;12.78;77.15;99144.50;1797183;78;28169;-69
2021/09/24 07:38:49;;;;;;;13.80;3.52;;;;;;;12.79;76.93;99143.38;1797078;79;25613;-68
2021/09/24 07:41:17;;;;;;;14.07;3.60;;;;;;;12.80;76.96;99154.42;1797428;79;25462;-68
2021/09/24 07:43:47;;;;;;;14.47;3.35;;;;;;;12.78;76.82;99153.42;1797125;78;25492;-68
2021/09/24 07:46:13;;;;;;;11.03;3.55;;;;;;;12.83;77.05;99151.02;1797175;79;25582;-68
2021/09/24 07:48:42;;;;;;;14.35;3.83;;;;;;;12.85;76.91;99163.08;1797141;79;28054;-68
2021/09/24 07:51:10;;;;;;;18.17;3.60;;;;;;;12.91;76.90;99170.98;1797298;79;25879;-67
2021/09/24 07:53:37;;;;;;;14.58;4.28;;;;;;;12.95;76.71;99165.84;1797396;79;25580;-69
2021/09/24 07:56:06;;;;;;;18.75;3.60;;;;;;;12.99;76.69;99157.22;1797099;79;25549;-68
2021/09/24 07:58:36;;;;;;;13.88;3.22;;;;;;;13.02;76.14;99161.92;1797310;79;25450;-69
2021/09/24 08:01:02;;;;;;;11.88;3.70;;;;;;;13.05;76.22;99162.58;1797259;78;28087;-69
2021/09/24 08:03:29;;;;;;;13.60;4.25;;;;;;;13.14;75.94;99160.25;1797060;79;25665;-68
2021/09/24 08:05:56;;;;;;;18.62;3.55;;;;;;;13.25;76.04;99169.44;1797176;79;25392;-69
2021/09/24 08:08:22;;;;;;;15.72;4.00;;;;;;;13.38;76.30;99180.98;1797177;79;25614;-69
2021/09/24 08:10:49;;;;;;;13.25;3.55;;;;;;;13.50;75.53;99171.92;1789477;79;25591;-68
2021/09/24 08:13:16;;;;;;;17.62;3.70;;;;;;;13.71;75.87;99178.39;1779862;80;27290;-69
2021/09/24 08:15:43;;;;;;;19.77;3.50;;;;;;;13.85;75.41;99175.95;1779759;80;25665;-70
2021/09/24 08:18:12;;;;;;;20.23;4.92;;;;;;;13.99;75.44;99173.50;1779886;80;25437;-69
2021/09/24 08:20:40;;;;;;;;;;;;;;;14.42;76.26;99162.66;1782483;80;26055;-68
2021/09/24 08:23:07;;;;;;;13.18;3.40;;;;;;;14.75;74.86;99166.72;1779918;80;25604;-66
2021/09/24 08:25:34;;;;;;;13.68;3.98;;;;;;;14.96;74.42;99169.57;1779817;80;27449;-66
2021/09/24 08:28:01;;;;;;;12.10;3.25;;;;;;;15.22;74.60;99167.41;1779767;80;25692;-65
2021/09/24 08:30:28;;;;;;;17.32;3.87;;;;;;;15.53;73.11;99170.39;1779964;79;25414;-68
2021/09/24 08:32:56;;;;;;;13.28;3.25;;;;;;;15.66;71.75;99166.84;1780036;79;25446;-67
2021/09/24 08:35:23;;;;;;;9.43;2.80;;;;;;;15.87;71.30;99171.22;1749813;80;25444;-68
2021/09/24 08:37:51;;;;;;;17.10;3.58;;;;;;;15.83;69.22;99170.97;1779981;80;27463;-69
2021/09/24 08:40:20;;;;;;;10.10;2.72;;;;;;;15.71;69.76;99193.77;1779922;79;25542;-68
2021/09/24 08:42:47;;;;;;;11.57;3.30;;;;;;;15.60;68.65;99175.92;1780035;80;25426;-68
2021/09/24 08:45:23;;;;;;;13.98;3.20;;;;;;;15.53;69.29;99175.03;1779989;80;25549;-68
2021/09/24 08:47:47;;;;;;;10.15;3.52;;;;;;;15.55;69.58;99178.20;1779320;80;25635;-67
2021/09/24 08:50:14;;;;;;;12.43;2.87;;;;;;;15.60;70.22;99181.38;1780019;80;27572;-69
2021/09/24 08:52:42;;;;;;;9.80;2.90;;;;;;;15.59;69.63;99179.80;1819703;78;26083;-70
2021/09/24 08:55:11;;;;;;;9.83;2.83;;;;;;;15.92;70.15;99182.95;1823824;78;25572;-69
2021/09/24 08:57:43;;;;;;;11.57;2.85;;;;;;;16.09;68.89;99194.66;1823957;78;25557;-69
2021/09/24 09:00:31;;;;;;;18.75;3.70;;;;;;;16.22;69.57;99189.12;1804277;78;25515;-69
2021/09/24 09:03:05;;;;;;;7.80;2.33;;;;;;;16.32;68.24;99194.50;1688916;84;27484;-69
2021/09/24 09:05:39;;;;;;;9.53;3.02;;;;;;;16.35;67.70;99206.03;1688642;85;25524;-70
2021/09/24 09:08:20;;;;;;;9.65;2.27;;;;;;;16.38;66.99;99216.80;1682047;83;25633;-68
2021/09/24 09:10:59;;;;;;;13.78;2.77;;;;;;;16.31;65.53;99195.67;1653982;86;25792;-69
2021/09/24 09:13:29;;;;;;;;;;;;;;;16.20;65.57;99196.13;1635570;86;25438;-68
2021/09/24 09:16:06;;;;;;;7.90;2.62;;;;;;;16.13;65.96;99199.56;1655375;86;28425;-68
2021/09/24 09:18:37;;;;;;;10.13;2.62;;;;;;;16.46;66.64;99199.31;1655532;86;25517;-68
2021/09/24 09:21:07;;;;;;;11.78;2.40;;;;;;;16.71;66.47;99214.56;1655547;86;25505;-68
2021/09/24 09:23:39;;;;;;;8.95;2.90;;;;;;;17.13;65.19;99199.72;1655537;86;25532;-68
2021/09/24 09:26:10;;;;;;;9.83;2.52;;;;;;;17.31;62.90;99203.15;1655577;86;25507;-68
2021/09/24 09:28:58;;;;;;;9.98;2.90;;;;;;;17.40;64.24;99208.27;1655536;86;27507;-68
2021/09/24 09:31:30;;;;;;;11.22;2.77;;;;;;;17.28;62.70;99217.56;1655464;86;25517;-68
2021/09/24 09:34:07;;;;;;;11.35;3.15;;;;;;;17.20;62.40;99229.05;1654832;86;25515;-66
2021/09/24 09:36:38;;;;;;;8.70;2.52;;;;;;;17.09;62.96;99196.16;1655485;86;25644;-66
2021/09/24 09:39:14;;;;;;;7.33;2.65;;;;;;;17.32;63.04;99211.56;1673006;80;25445;-66
2021/09/24 09:41:53;;;;;;;11.45;2.62;;;;;;;17.63;63.77;99218.96;1763666;80;28179;-66
2021/09/24 09:44:32;;;;;;;7.62;3.25;;;;;;;17.95;61.05;99185.54;1742841;80;25822;-66
2021/09/24 09:46:58;;;;;;;8.75;2.22;;;;;;;18.27;61.90;99217.11;1739138;82;25406;-66
2021/09/24 09:49:27;;;;;;;7.67;2.50;;;;;;;18.72;62.61;99211.31;1738901;82;25678;-65
2021/09/24 09:52:11;;;;;;;8.90;2.35;;;;;;;18.91;60.48;99216.42;1739197;82;25438;-66
2021/09/24 09:54:37;;;;;;;12.30;3.15;;;;;;;18.90;60.88;99232.68;1737560;82;28174;-66
2021/09/24 09:57:16;;;;;;;8.88;2.52;;;;;;;19.06;59.03;99245.98;1739053;82;26035;-66
2021/09/24 09:59:49;;;;;;;12.60;2.93;;;;;;;19.11;57.78;99240.70;1739147;82;25478;-66
2021/09/24 10:02:24;;;;;;;9.00;2.08;;;;;;;19.28;58.90;99236.38;1737269;82;25526;-66
2021/09/24 10:04:53;;;;;;;8.00;2.40;;;;;;;19.43;57.81;99233.81;1720265;82;25444;-65
2021/09/24 10:07:26;;;;;;;5.30;2.45;;;;;;;19.19;57.17;99233.45;1739229;82;27311;-65
2021/09/24 10:10:12;;;;;;;9.00;2.62;;;;;;;18.93;57.01;99245.58;1738167;82;25874;-64
2021/09/24 10:12:40;;;;;;;6.95;2.10;;;;;;;18.71;57.15;99255.73;1739133;82;25502;-65
2021/09/24 10:15:09;;;;;;;7.65;2.20;;;;;;;18.35;55.14;99256.22;1739318;82;25532;-65
2021/09/24 10:17:36;;;;;;;8.28;2.33;;;;;;;18.21;56.63;99254.99;1745103;82;25535;-64
2021/09/24 10:20:04;;;;;;;6.15;2.22;;;;;;;17.94;56.96;99248.25;1738817;82;28118;-62
2021/09/24 10:22:31;;;;;;;6.30;2.60;;;;;;;17.75;57.59;99263.75;1739227;82;25519;-64
2021/09/24 10:24:58;;;;;;;5.90;2.42;;;;;;;17.54;57.63;99254.26;1709638;82;25431;-64
2021/09/24 10:27:29;;;;;;;8.18;2.05;;;;;;;17.67;60.02;99248.47;1739047;82;25538;-66
2021/09/24 10:30:01;;;;;;;11.33;2.50;;;;;;;18.22;59.13;99255.80;1738307;82;25524;-64
2021/09/24 10:32:29;;;;;;;10.45;3.40;;;;;;;18.45;59.55;99260.34;1739108;82;27482;-63
2021/09/24 10:35:08;;;;;;;6.35;2.17;;;;;;;18.62;57.83;99256.67;1739015;82;25554;-64
2021/09/24 10:37:39;;;;;;;10.60;2.40;;;;;;;18.42;57.04;99270.72;1739104;82;25383;-64
2021/09/24 10:40:26;;;;;;;7.12;2.15;;;;;;;18.14;56.50;99271.98;1738781;82;25805;-64
2021/09/24 10:42:58;;;;;;;7.20;2.20;;;;;;;17.96;57.50;99264.46;1739102;82;25481;-64
2021/09/24 10:45:35;;;;;;;5.95;1.92;;;;;;;18.09;57.20;99283.48;1739140;82;27557;-64
2021/09/24 10:48:21;;;;;;;8.58;2.05;;;;;;;17.90;55.47;99272.26;1738949;82;25467;-64
2021/09/24 10:50:58;;;;;;;13.20;2.33;;;;;;;17.69;56.78;99268.00;1738789;82;25521;-63
2021/09/24 10:53:42;;;;;;;5.47;2.17;;;;;;;17.94;57.12;99264.06;1738921;82;25517;-64
2021/09/24 10:56:14;;;;;;;10.38;2.05;;;;;;;17.83;56.85;99289.20;1732121;82;25392;-64
2021/09/24 10:58:43;;;;;;;7.92;2.00;;;;;;;17.78;56.74;99282.73;1738850;82;27538;-64
2021/09/24 11:01:15;;;;;;;7.05;2.45;;;;;;;17.66;57.00;99276.40;1738223;81;26217;-64
2021/09/24 11:03:56;;;;;;;6.50;2.22;;;;;;;17.54;57.09;99284.92;1719632;82;25692;-62
2021/09/24 11:06:42;;;;;;;7.97;1.72;;;;;;;17.85;57.87;99286.86;1738391;82;25532;-62
2021/09/24 11:09:13;;;;;;;7.28;1.80;;;;;;;18.23;57.09;99283.34;1738262;82;25494;-63
2021/09/24 11:11:46;;;;;;;4.92;1.92;;;;;;;18.32;56.22;99276.95;1738471;82;28067;-63
2021/09/24 11:14:32;;;;;;;7.28;2.12;;;;;;;18.54;56.73;99266.03;1738552;82;25537;-63
2021/09/24 11:17:01;;;;;;;5.28;2.00;;;;;;;18.96;55.28;99257.13;1739002;82;25461;-62
2021/09/24 11:19:49;;;;;;;10.72;1.90;;;;;;;19.46;56.24;99275.53;1719958;82;25609;-63
2021/09/24 11:22:21;;;;;;;5.10;1.72;;;;;;;19.76;54.68;99281.17;1738983;82;25477;-64
2021/09/24 11:24:53;;;;;;;6.90;1.85;;;;;;;19.43;53.02;99268.66;1739083;82;28128;-63
2021/09/24 11:27:39;;;;;;;12.23;2.00;;;;;;;19.37;54.01;99271.80;1734770;82;25487;-62
2021/09/24 11:30:10;;;;;;;10.00;2.08;;;;;;;19.67;53.85;99280.79;1738830;82;25503;-62
2021/09/24 11:32:43;;;;;;;8.58;1.72;;;;;;;20.03;54.32;99269.14;1739010;82;25458;-62
2021/09/24 11:35:17;;;;;;;7.28;2.10;;;;;;;20.32;53.49;99279.41;1739082;82;25462;-62
2021/09/24 11:37:46;;;;;;;12.80;2.37;;;;;;;20.24;53.43;99281.21;1738523;82;27483;-62